createdAt,value
2018-06-17T00:00:35.954Z,52.19
2018-06-17T00:01:16.523Z,52.28
2018-06-17T00:01:57.072Z,52.47
2018-06-17T00:02:37.637Z,52.67
2018-06-17T00:03:18.208Z,52.47
2018-06-17T00:03:58.777Z,52.28
2018-06-17T00:04:39.356Z,52.37
2018-06-17T00:05:19.915Z,52.67
2018-06-17T00:06:00.461Z,52.67
2018-06-17T00:06:41.025Z,52.47
2018-06-17T00:07:21.595Z,52.47
2018-06-17T00:08:02.132Z,52.47
2018-06-17T00:08:42.694Z,52.67
2018-06-17T00:09:23.262Z,52.19
2018-06-17T00:10:03.806Z,52.37
2018-06-17T00:10:44.410Z,52.19
2018-06-17T00:11:24.993Z,52.28
2018-06-17T00:12:05.544Z,52.28
2018-06-17T00:12:46.090Z,52.28
2018-06-17T00:13:26.653Z,51.99
2018-06-17T00:14:07.242Z,52.37
2018-06-17T00:14:47.821Z,52.57
2018-06-17T00:15:28.387Z,52.76
2018-06-17T00:16:08.932Z,52.47
2018-06-17T00:16:49.504Z,52.67
2018-06-17T00:17:30.065Z,52.76
2018-06-17T00:18:10.626Z,52.47
2018-06-17T00:18:51.204Z,52.57
2018-06-17T00:19:31.777Z,52.76
2018-06-17T00:20:12.349Z,52.37
2018-06-17T00:20:52.897Z,52.57
2018-06-17T00:21:33.451Z,52.73
2018-06-17T00:22:14.011Z,52.37
2018-06-17T00:22:54.621Z,52.37
2018-06-17T00:23:35.206Z,52.47
2018-06-17T00:24:15.774Z,52.45
2018-06-17T00:24:56.329Z,52.35
2018-06-17T00:25:36.960Z,52.55
2018-06-17T00:26:17.527Z,52.73
2018-06-17T00:26:58.092Z,52.83
2018-06-17T00:27:38.677Z,52.73
2018-06-17T00:28:19.261Z,52.83
2018-06-17T00:29:00.430Z,52.95
2018-06-17T00:29:40.986Z,53.31
2018-06-17T00:30:21.616Z,53.22
2018-06-17T00:31:02.187Z,52.93
2018-06-17T00:31:42.741Z,53.22
2018-06-17T00:32:23.288Z,53.31
2018-06-17T00:33:03.854Z,53.41
2018-06-17T00:33:44.428Z,53.31
2018-06-17T00:34:24.983Z,53.03
2018-06-17T00:35:05.871Z,53.41
2018-06-17T00:35:46.446Z,53.41
2018-06-17T00:36:27.007Z,53.51
2018-06-17T00:37:07.563Z,53.7
2018-06-17T00:37:48.127Z,53.89
2018-06-17T00:38:28.685Z,53.7
2018-06-17T00:39:09.245Z,53.7
2018-06-17T00:39:49.796Z,53.51
2018-06-17T00:40:30.358Z,53.61
2018-06-17T00:41:10.929Z,53.61
2018-06-17T00:41:51.500Z,53.99
2018-06-17T00:42:32.073Z,53.89
2018-06-17T00:43:12.657Z,53.89
2018-06-17T00:43:53.207Z,54.28
2018-06-17T00:44:33.803Z,54.18
2018-06-17T00:45:14.370Z,54.66
2018-06-17T00:45:54.947Z,54.66
2018-06-17T00:46:35.500Z,54.57
2018-06-17T00:47:16.254Z,54.47
2018-06-17T00:47:56.779Z,54.66
2018-06-17T00:48:37.345Z,54.66
2018-06-17T00:49:17.922Z,54.76
2018-06-17T00:49:58.481Z,54.96
2018-06-17T00:50:39.054Z,54.86
2018-06-17T00:51:19.632Z,55.05
2018-06-17T00:52:00.197Z,54.96
2018-06-17T00:52:40.991Z,54.76
2018-06-17T00:53:21.578Z,55.34
2018-06-17T00:54:02.139Z,55.05
2018-06-17T00:54:42.713Z,55.05
2018-06-17T00:55:23.270Z,55.02
2018-06-17T00:56:03.848Z,55.12
2018-06-17T00:56:44.408Z,55.05
2018-06-17T00:57:24.958Z,55.02
2018-06-17T00:58:05.519Z,55.22
2018-06-17T00:58:46.545Z,55.05
2018-06-17T00:59:27.134Z,55.31
2018-06-17T01:00:08.089Z,55.7
2018-06-17T01:00:48.721Z,55.41
2018-06-17T01:01:29.357Z,55.54
2018-06-17T01:02:10.984Z,55.89
2018-06-17T01:02:51.634Z,55.6
2018-06-17T01:04:51.023Z,55.15
2018-06-17T01:05:31.596Z,55.41
2018-06-17T01:06:12.135Z,55.41
2018-06-17T01:06:52.713Z,55.31
2018-06-17T01:07:33.529Z,55.51
2018-06-17T01:08:14.100Z,55.6
2018-06-17T01:08:56.121Z,55.41
2018-06-17T01:09:36.813Z,55.7
2018-06-17T01:10:17.463Z,55.6
2018-06-17T01:10:58.067Z,56.09
2018-06-17T01:11:39.819Z,55.51
2018-06-17T01:12:20.510Z,56.09
2018-06-17T01:13:01.085Z,56.09
2018-06-17T01:13:41.677Z,56.09
2018-06-17T01:14:23.197Z,55.99
2018-06-17T01:15:03.741Z,55.6
2018-06-17T01:15:44.869Z,55.6
2018-06-17T01:16:25.407Z,56.09
2018-06-17T01:17:06.130Z,56.18
2018-06-17T01:17:46.760Z,55.89
2018-06-17T01:18:27.430Z,56.18
2018-06-17T01:19:08.182Z,56.18
2018-06-17T01:19:48.785Z,56.47
2018-06-17T01:20:29.434Z,56.09
2018-06-17T01:21:10.079Z,56.37
2018-06-17T01:21:50.664Z,56.47
2018-06-17T01:22:31.244Z,56.76
2018-06-17T01:23:11.793Z,56.76
2018-06-17T01:23:52.430Z,56.76
2018-06-17T01:24:32.992Z,56.95
2018-06-17T01:25:13.544Z,56.85
2018-06-17T01:25:54.111Z,56.57
2018-06-17T01:26:34.670Z,56.66
2018-06-17T01:27:15.235Z,57.05
2018-06-17T01:27:55.797Z,56.95
2018-06-17T01:28:36.394Z,57.24
2018-06-17T01:29:16.963Z,57.24
2018-06-17T01:29:57.533Z,57.24
2018-06-17T01:30:38.081Z,57.43
2018-06-17T01:31:18.642Z,57.34
2018-06-17T01:31:59.212Z,57.14
2018-06-17T01:32:39.766Z,57.24
2018-06-17T01:33:20.359Z,56.92
2018-06-17T01:34:00.907Z,57.05
2018-06-17T01:34:41.480Z,56.85
2018-06-17T01:35:22.031Z,57.21
2018-06-17T01:36:02.592Z,57.24
2018-06-17T01:36:43.151Z,57.4
2018-06-17T01:37:23.721Z,57.53
2018-06-17T01:38:04.276Z,57.24
2018-06-17T01:38:44.833Z,57.24
2018-06-17T01:39:25.415Z,57.82
2018-06-17T01:40:06.060Z,57.53
2018-06-17T01:40:46.604Z,57.53
2018-06-17T01:41:27.147Z,57.62
2018-06-17T01:42:07.742Z,57.82
2018-06-17T01:42:48.292Z,57.62
2018-06-17T01:43:28.880Z,57.53
2018-06-17T01:44:09.434Z,57.6
2018-06-17T01:44:50.000Z,57.5
2018-06-17T01:45:30.556Z,57.43
2018-06-17T01:46:11.124Z,57.72
2018-06-17T01:46:51.675Z,57.89
2018-06-17T01:47:32.219Z,57.4
2018-06-17T01:48:12.774Z,57.4
2018-06-17T01:48:53.322Z,57.98
2018-06-17T01:49:33.877Z,58.4
2018-06-17T01:50:14.449Z,58.47
2018-06-17T01:50:55.005Z,58.37
2018-06-17T01:51:35.578Z,58.75
2018-06-17T01:52:16.143Z,58.65
2018-06-17T01:52:56.709Z,58.75
2018-06-17T01:53:37.271Z,58.85
2018-06-17T01:54:17.817Z,58.56
2018-06-17T01:54:58.413Z,58.47
2018-06-17T01:55:38.981Z,58.47
2018-06-17T01:56:19.536Z,58.65
2018-06-17T01:57:00.109Z,58.56
2018-06-17T01:57:40.677Z,58.56
2018-06-17T01:58:21.234Z,58.65
2018-06-17T01:59:02.126Z,58.75
2018-06-17T01:59:42.683Z,58.65
2018-06-17T02:00:23.241Z,58.65
2018-06-17T02:01:03.879Z,58.75
2018-06-17T02:01:44.447Z,58.75
2018-06-17T02:02:24.999Z,58.47
2018-06-17T02:03:05.566Z,58.65
2018-06-17T02:03:46.125Z,58.65
2018-06-17T02:04:26.692Z,58.56
2018-06-17T02:05:07.263Z,58.95
2018-06-17T02:05:47.827Z,58.56
2018-06-17T02:06:28.377Z,58.56
2018-06-17T02:07:08.944Z,58.47
2018-06-17T02:07:49.501Z,58.65
2018-06-17T02:08:30.056Z,58.65
2018-06-17T02:09:11.366Z,58.65
2018-06-17T02:09:51.947Z,58.65
2018-06-17T02:10:32.534Z,58.37
2018-06-17T02:11:13.092Z,58.85
2018-06-17T02:11:53.667Z,58.85
2018-06-17T02:12:34.267Z,58.75
2018-06-17T02:13:14.847Z,58.56
2018-06-17T02:13:55.379Z,58.75
2018-06-17T02:14:35.950Z,58.47
2018-06-17T02:15:16.521Z,58.47
2018-06-17T02:15:57.080Z,58.65
2018-06-17T02:16:37.645Z,58.47
2018-06-17T02:17:18.207Z,58.27
2018-06-17T02:17:58.748Z,58.37
2018-06-17T02:18:39.317Z,58.65
2018-06-17T02:19:19.886Z,58.56
2018-06-17T02:20:00.479Z,58.37
2018-06-17T02:20:40.998Z,58.65
2018-06-17T02:21:21.581Z,58.75
2018-06-17T02:22:02.158Z,58.75
2018-06-17T02:22:42.688Z,58.37
2018-06-17T02:23:23.253Z,58.47
2018-06-17T02:24:03.852Z,58.75
2018-06-17T02:24:44.415Z,58.85
2018-06-17T02:25:24.989Z,58.47
2018-06-17T02:26:05.543Z,58.65
2018-06-17T02:26:46.088Z,58.75
2018-06-17T02:27:26.649Z,58.65
2018-06-17T02:28:07.204Z,58.56
2018-06-17T02:28:47.765Z,58.75
2018-06-17T02:29:28.330Z,58.75
2018-06-17T02:30:08.904Z,58.37
2018-06-17T02:30:49.465Z,58.47
2018-06-17T02:31:30.035Z,58.75
2018-06-17T02:32:10.582Z,58.85
2018-06-17T02:32:51.145Z,59.01
2018-06-17T02:33:31.721Z,58.65
2018-06-17T02:34:12.326Z,59.04
2018-06-17T02:34:52.876Z,59.52
2018-06-17T02:35:33.452Z,59.33
2018-06-17T02:36:14.041Z,59.23
2018-06-17T02:36:54.591Z,59.14
2018-06-17T02:37:35.138Z,59.14
2018-06-17T02:38:15.703Z,59.23
2018-06-17T02:38:56.269Z,59.23
2018-06-17T02:39:36.826Z,59.43
2018-06-17T02:40:17.391Z,59.52
2018-06-17T02:40:57.949Z,59.43
2018-06-17T02:41:38.497Z,59.11
2018-06-17T02:42:19.092Z,59.14
2018-06-17T02:42:59.656Z,59.49
2018-06-17T02:43:40.237Z,59.3
2018-06-17T02:44:20.860Z,59.49
2018-06-17T02:45:01.448Z,59.59
2018-06-17T02:45:41.989Z,59.49
2018-06-17T02:46:22.649Z,59.49
2018-06-17T02:47:03.219Z,59.88
2018-06-17T02:47:43.763Z,59.78
2018-06-17T02:48:24.338Z,59.88
2018-06-17T02:49:04.898Z,59.88
2018-06-17T02:49:45.465Z,59.97
2018-06-17T02:50:26.048Z,59.88
2018-06-17T02:51:06.610Z,59.88
2018-06-17T02:51:47.205Z,59.97
2018-06-17T02:52:27.889Z,59.78
2018-06-17T02:53:08.541Z,59.97
2018-06-17T02:53:49.147Z,60.07
2018-06-17T02:54:29.718Z,60.17
2018-06-17T02:55:10.286Z,59.88
2018-06-17T02:55:50.855Z,60.46
2018-06-17T02:56:31.412Z,60.17
2018-06-17T02:57:11.972Z,60.46
2018-06-17T02:57:52.546Z,60.27
2018-06-17T02:58:33.113Z,59.88
2018-06-17T02:59:13.691Z,59.88
2018-06-17T02:59:54.289Z,60.07
2018-06-17T03:00:35.147Z,60.27
2018-06-17T03:01:15.725Z,60.17
2018-06-17T03:01:56.309Z,60.75
2018-06-17T03:02:36.864Z,60.75
2018-06-17T03:03:17.413Z,60.84
2018-06-17T03:03:58.107Z,61.04
2018-06-17T03:04:38.550Z,60.94
2018-06-17T03:05:19.096Z,60.84
2018-06-17T03:05:59.651Z,60.84
2018-06-17T03:06:40.204Z,60.75
2018-06-17T03:07:20.773Z,60.75
2018-06-17T03:08:01.331Z,60.65
2018-06-17T03:08:41.884Z,60.65
2018-06-17T03:09:22.445Z,60.55
2018-06-17T03:10:02.997Z,60.75
2018-06-17T03:10:43.588Z,60.55
2018-06-17T03:11:24.148Z,60.55
2018-06-17T03:12:04.702Z,60.84
2018-06-17T03:12:45.264Z,60.75
2018-06-17T03:13:25.819Z,60.94
2018-06-17T03:14:06.376Z,60.94
2018-06-17T03:14:46.926Z,60.75
2018-06-17T03:15:27.541Z,60.36
2018-06-17T03:16:08.083Z,60.75
2018-06-17T03:16:48.672Z,61
2018-06-17T03:17:29.246Z,60.94
2018-06-17T03:18:09.798Z,60.55
2018-06-17T03:18:50.384Z,60.94
2018-06-17T03:19:30.966Z,60.94
2018-06-17T03:20:11.508Z,60.84
2018-06-17T03:20:52.061Z,60.52
2018-06-17T03:21:32.671Z,61.1
2018-06-17T03:22:13.223Z,61.22
2018-06-17T03:22:53.787Z,60.55
2018-06-17T03:23:34.369Z,60.62
2018-06-17T03:24:14.958Z,60.52
2018-06-17T03:24:55.526Z,60.46
2018-06-17T03:25:36.074Z,60.91
2018-06-17T03:26:16.628Z,60.94
2018-06-17T03:26:57.180Z,60.84
2018-06-17T03:27:37.728Z,61.13
2018-06-17T03:28:18.276Z,60.84
2018-06-17T03:28:58.841Z,61.13
2018-06-17T03:29:39.406Z,61.19
2018-06-17T03:30:19.969Z,60.81
2018-06-17T03:31:00.518Z,61.1
2018-06-17T03:31:41.119Z,60.81
2018-06-17T03:32:21.684Z,61
2018-06-17T03:33:02.236Z,61.42
2018-06-17T03:33:42.795Z,61.58
2018-06-17T03:34:23.352Z,61.49
2018-06-17T03:35:03.912Z,61.77
2018-06-17T03:35:44.501Z,61.49
2018-06-17T03:36:25.075Z,61.32
2018-06-17T03:37:05.643Z,61.42
2018-06-17T03:37:46.205Z,61.77
2018-06-17T03:38:26.764Z,61.49
2018-06-17T03:39:07.321Z,61.58
2018-06-17T03:39:47.877Z,61.52
2018-06-17T03:40:28.460Z,61.87
2018-06-17T03:41:09.010Z,62
2018-06-17T03:41:49.586Z,62
2018-06-17T03:42:30.150Z,62.19
2018-06-17T03:43:10.699Z,61.87
2018-06-17T03:43:51.256Z,62.29
2018-06-17T03:44:31.821Z,62.19
2018-06-17T03:45:12.386Z,62.35
2018-06-17T03:45:53.002Z,62.29
2018-06-17T03:46:33.558Z,62.67
2018-06-17T03:47:14.132Z,62.57
2018-06-17T03:47:54.719Z,62.48
2018-06-17T03:48:35.291Z,62.67
2018-06-17T03:49:15.924Z,62.67
2018-06-17T03:49:56.541Z,62.96
2018-06-17T03:50:37.065Z,63.02
2018-06-17T03:51:17.639Z,62.38
2018-06-17T03:51:58.208Z,62.35
2018-06-17T03:52:38.749Z,62.57
2018-06-17T03:53:19.309Z,62.48
2018-06-17T03:53:59.888Z,62.45
2018-06-17T03:54:40.453Z,62.29
2018-06-17T03:55:21.018Z,62.67
2018-06-17T03:56:01.589Z,62.67
2018-06-17T03:56:42.148Z,63.25
2018-06-17T03:57:22.760Z,62.67
2018-06-17T03:58:03.321Z,62.83
2018-06-17T03:58:43.882Z,62.87
2018-06-17T03:59:24.426Z,62.83
2018-06-17T04:00:04.989Z,62.83
2018-06-17T04:00:45.561Z,62.67
2018-06-17T04:01:26.124Z,62.77
2018-06-17T04:02:06.677Z,62.77
2018-06-17T04:02:47.234Z,63.34
2018-06-17T04:03:27.797Z,63.25
2018-06-17T04:04:08.469Z,62.96
2018-06-17T04:04:48.941Z,62.77
2018-06-17T04:05:29.506Z,63.25
2018-06-17T04:06:10.072Z,63.06
2018-06-17T04:06:50.638Z,63.64
2018-06-17T04:07:31.257Z,63.15
2018-06-17T04:08:11.819Z,63.15
2018-06-17T04:08:52.398Z,62.77
2018-06-17T04:09:32.967Z,62.87
2018-06-17T04:10:13.523Z,62.77
2018-06-17T04:10:54.123Z,63.15
2018-06-17T04:11:34.685Z,62.77
2018-06-17T04:12:15.260Z,62.67
2018-06-17T04:12:55.832Z,62.67
2018-06-17T04:13:36.397Z,62.96
2018-06-17T04:14:16.976Z,63.06
2018-06-17T04:14:57.548Z,62.48
2018-06-17T04:15:38.102Z,62.48
2018-06-17T04:16:18.682Z,62.38
2018-06-17T04:16:59.227Z,62.57
2018-06-17T04:17:39.843Z,62.87
2018-06-17T04:18:20.410Z,62.67
2018-06-17T04:19:00.991Z,62.67
2018-06-17T04:19:41.527Z,62.57
2018-06-17T04:20:22.096Z,62.38
2018-06-17T04:21:03.302Z,62.77
2018-06-17T04:21:43.854Z,62.77
2018-06-17T04:22:24.412Z,62.67
2018-06-17T04:23:04.986Z,62.57
2018-06-17T04:23:45.589Z,62.57
2018-06-17T04:24:26.135Z,62.57
2018-06-17T04:25:06.697Z,62.77
2018-06-17T04:25:47.256Z,62.77
2018-06-17T04:26:27.823Z,62.77
2018-06-17T04:27:08.418Z,62.57
2018-06-17T04:27:48.963Z,62.77
2018-06-17T04:28:29.544Z,62.87
2018-06-17T04:29:10.089Z,62.67
2018-06-17T04:29:50.639Z,62.48
2018-06-17T04:30:31.270Z,62.29
2018-06-17T04:31:11.827Z,62.57
2018-06-17T04:31:52.379Z,62.38
2018-06-17T04:32:32.951Z,62.67
2018-06-17T04:33:13.505Z,62.67
2018-06-17T04:33:54.053Z,62.67
2018-06-17T04:34:34.627Z,62.87
2018-06-17T04:35:15.225Z,62.57
2018-06-17T04:35:55.782Z,62.38
2018-06-17T04:36:36.385Z,62.77
2018-06-17T04:37:16.952Z,62.67
2018-06-17T04:37:57.516Z,62.57
2018-06-17T04:38:38.139Z,62.57
2018-06-17T04:39:18.659Z,62.57
2018-06-17T04:39:59.224Z,62.38
2018-06-17T04:40:39.806Z,62.29
2018-06-17T04:41:20.387Z,61.9
2018-06-17T04:42:00.948Z,62.09
2018-06-17T04:42:41.491Z,62
2018-06-17T04:43:22.040Z,62.67
2018-06-17T04:44:02.596Z,62.38
2018-06-17T04:44:43.149Z,62.38
2018-06-17T04:45:23.715Z,61.83
2018-06-17T04:46:04.289Z,62.19
2018-06-17T04:46:44.859Z,61.52
2018-06-17T04:47:25.432Z,61.52
2018-06-17T04:48:05.998Z,61.61
2018-06-17T04:48:46.563Z,61.61
2018-06-17T04:49:27.131Z,61.61
2018-06-17T04:50:07.701Z,61.8
2018-06-17T04:50:48.288Z,61.52
2018-06-17T04:51:28.928Z,61.22
2018-06-17T04:52:09.481Z,61.16
2018-06-17T04:52:50.046Z,61.07
2018-06-17T04:53:30.610Z,61.04
2018-06-17T04:54:11.161Z,60.87
2018-06-17T04:54:51.723Z,60.97
2018-06-17T04:55:32.295Z,60.97
2018-06-17T04:56:12.862Z,61.16
2018-06-17T04:56:53.445Z,60.77
2018-06-17T04:57:34.019Z,61.16
2018-06-17T04:58:14.552Z,60.49
2018-06-17T04:58:55.118Z,60.87
2018-06-17T04:59:35.711Z,61.25
2018-06-17T05:00:16.283Z,60.58
2018-06-17T05:00:56.840Z,61.16
2018-06-17T05:01:37.416Z,60.68
2018-06-17T05:02:17.976Z,60
2018-06-17T05:02:58.542Z,60.1
2018-06-17T05:03:39.105Z,59.81
2018-06-17T05:04:19.680Z,59.91
2018-06-17T05:05:00.246Z,60.03
2018-06-17T05:05:40.809Z,59.91
2018-06-17T05:06:21.403Z,60.03
2018-06-17T05:07:01.954Z,59.75
2018-06-17T05:07:42.506Z,59.55
2018-06-17T05:08:23.072Z,59.36
2018-06-17T05:09:03.624Z,59.17
2018-06-17T05:09:44.194Z,59.17
2018-06-17T05:10:24.764Z,59.27
2018-06-17T05:11:05.321Z,58.69
2018-06-17T05:11:45.867Z,58.88
2018-06-17T05:12:26.422Z,59.07
2018-06-17T05:13:06.959Z,58.97
2018-06-17T05:13:47.528Z,58.97
2018-06-17T05:14:28.093Z,58.88
2018-06-17T05:15:08.659Z,59.17
2018-06-17T05:15:49.229Z,58.78
2018-06-17T05:16:29.854Z,58.78
2018-06-17T05:17:10.476Z,58.88
2018-06-17T05:17:50.981Z,59.07
2018-06-17T05:18:31.579Z,59.27
2018-06-17T05:19:12.126Z,58.49
2018-06-17T05:19:52.691Z,58.59
2018-06-17T05:20:33.267Z,58.4
2018-06-17T05:21:13.856Z,58.88
2018-06-17T05:21:54.522Z,58.59
2018-06-17T05:22:35.101Z,59.07
2018-06-17T05:23:15.781Z,58.88
2018-06-17T05:23:56.336Z,58.59
2018-06-17T05:24:36.893Z,58.78
2018-06-17T05:25:17.454Z,58.69
2018-06-17T05:25:58.026Z,58.4
2018-06-17T05:26:38.575Z,58.49
2018-06-17T05:27:19.141Z,58.69
2018-06-17T05:27:59.691Z,58.49
2018-06-17T05:28:40.262Z,58.97
2018-06-17T05:29:20.831Z,58.49
2018-06-17T05:30:01.469Z,58.33
2018-06-17T05:30:42.331Z,58.14
2018-06-17T05:31:22.927Z,58.52
2018-06-17T05:32:03.528Z,58.14
2018-06-17T05:32:44.056Z,58.42
2018-06-17T05:33:24.613Z,58.04
2018-06-17T05:34:05.203Z,58.04
2018-06-17T05:34:45.811Z,58.07
2018-06-17T05:35:26.380Z,57.39
2018-06-17T05:36:06.898Z,56.81
2018-06-17T05:36:47.540Z,56.91
2018-06-17T05:37:28.089Z,56.84
2018-06-17T05:38:08.749Z,56.56
2018-06-17T05:38:49.364Z,56.26
2018-06-17T05:39:29.877Z,56.26
2018-06-17T05:40:10.484Z,56.1
2018-06-17T05:40:51.407Z,56.96
2018-06-17T05:41:31.984Z,56.1
2018-06-17T05:42:12.596Z,54.75
2018-06-17T05:42:53.141Z,53.71
2018-06-17T05:43:34.161Z,54.19
2018-06-17T05:44:18.638Z,53.61
2018-06-17T05:44:59.975Z,53.81
2018-06-17T05:45:40.581Z,53.91
2018-06-17T05:46:21.168Z,53.35
2018-06-17T05:47:01.715Z,53.45
2018-06-17T05:47:42.294Z,53.45
2018-06-17T05:48:22.856Z,53.19
2018-06-17T05:49:03.481Z,53.93
2018-06-17T05:49:44.072Z,53.28
2018-06-17T05:50:24.721Z,53.77
2018-06-17T05:51:05.294Z,54.05
2018-06-17T05:51:45.857Z,52.22
2018-06-17T05:52:26.478Z,51.73
2018-06-17T05:53:07.027Z,52.34
2018-06-17T05:53:47.598Z,52.92
2018-06-17T05:54:28.136Z,52.63
2018-06-17T05:55:08.791Z,51.76
2018-06-17T05:55:49.358Z,51.86
2018-06-17T05:56:29.880Z,51.95
2018-06-17T05:57:10.465Z,51.98
2018-06-17T05:57:51.443Z,51.78
2018-06-17T05:58:34.653Z,51.59
2018-06-17T05:59:15.790Z,52.46
2018-06-17T05:59:56.645Z,51.78
2018-06-17T06:00:37.705Z,52.56
2018-06-17T06:01:18.691Z,50.94
2018-06-17T06:01:59.251Z,50.84
2018-06-17T06:02:39.877Z,50.26
2018-06-17T06:03:20.464Z,49.87
2018-06-17T06:04:01.089Z,50.45
2018-06-17T06:04:41.586Z,50.45
2018-06-17T06:05:22.132Z,49.97
2018-06-17T06:06:02.967Z,50.65
2018-06-17T06:06:43.799Z,50.87
2018-06-17T06:07:24.872Z,50.96
2018-06-17T06:08:05.392Z,51.06
2018-06-17T06:08:46.142Z,49.9
2018-06-17T06:09:27.024Z,50.09
2018-06-17T06:10:07.622Z,50.96
2018-06-17T06:10:48.223Z,50.89
2018-06-17T06:11:28.821Z,49.82
2018-06-17T06:12:09.412Z,49.61
2018-06-17T06:12:49.946Z,49.61
2018-06-17T06:13:30.518Z,51.09
2018-06-17T06:14:11.118Z,50.79
2018-06-17T06:14:51.697Z,50.6
2018-06-17T06:15:32.430Z,48.37
2018-06-17T06:16:13.237Z,47.4
2018-06-17T06:16:53.816Z,48.95
2018-06-17T06:17:34.758Z,49.15
2018-06-17T06:18:15.834Z,48.66
2018-06-17T06:18:56.601Z,48.47
2018-06-17T06:19:37.487Z,47.4
2018-06-17T06:20:18.237Z,46.92
2018-06-17T06:20:58.779Z,47.4
2018-06-17T06:21:39.329Z,46.82
2018-06-17T06:22:20.040Z,45.85
2018-06-17T06:23:02.143Z,47.02
2018-06-17T06:23:43.372Z,48.95
2018-06-17T06:24:23.944Z,48.85
2018-06-17T06:25:04.627Z,49.44
2018-06-17T06:25:45.321Z,49.92
2018-06-17T06:26:26.120Z,48.39
2018-06-17T06:27:06.663Z,47.81
2018-06-17T06:27:47.607Z,48.3
2018-06-17T06:28:28.308Z,49.07
2018-06-17T06:29:08.973Z,48.71
2018-06-17T06:29:49.910Z,49.29
2018-06-17T06:30:30.717Z,50.07
2018-06-17T06:31:11.532Z,48.71
2018-06-17T06:31:52.553Z,48.8
2018-06-17T06:32:33.126Z,48.9
2018-06-17T06:33:14.541Z,48.44
2018-06-17T06:33:55.384Z,48.25
2018-06-17T06:34:36.359Z,45.82
2018-06-17T06:35:17.158Z,45.43
2018-06-17T06:35:58.743Z,46.89
2018-06-17T06:36:39.247Z,47.57
2018-06-17T06:37:19.884Z,45.53
2018-06-17T06:38:00.530Z,45.36
2018-06-17T06:38:41.450Z,45.26
2018-06-17T06:39:22.453Z,46.81
2018-06-17T06:40:03.308Z,46.14
2018-06-17T06:40:43.870Z,47.4
2018-06-17T06:41:24.611Z,47.01
2018-06-17T06:42:05.349Z,46.52
2018-06-17T06:42:46.197Z,47.01
2018-06-17T06:43:27.276Z,46.42
2018-06-17T06:44:07.985Z,46.42
2018-06-17T06:44:48.806Z,45.65
2018-06-17T06:45:29.640Z,44.68
2018-06-17T06:46:10.236Z,45.36
2018-06-17T06:46:51.277Z,46.04
2018-06-17T06:47:32.163Z,46.33
2018-06-17T06:48:12.721Z,46.42
2018-06-17T06:48:53.388Z,45.75
2018-06-17T06:49:33.998Z,44.7
2018-06-17T06:50:14.896Z,46.25
2018-06-17T06:50:55.948Z,46.15
2018-06-17T06:51:36.540Z,46.15
2018-06-17T06:52:17.700Z,45.87
2018-06-17T06:52:58.819Z,44.7
2018-06-17T06:53:39.743Z,41.88
2018-06-17T06:54:20.584Z,41.78
2018-06-17T06:55:01.329Z,43.05
2018-06-17T06:55:41.908Z,44.79
2018-06-17T06:56:22.464Z,44.89
2018-06-17T06:57:03.029Z,45.48
2018-06-17T06:57:43.627Z,46.06
2018-06-17T06:58:24.267Z,45.38
2018-06-17T06:59:04.874Z,45.38
2018-06-17T06:59:45.475Z,45.97
2018-06-17T07:00:26.047Z,44.79
2018-06-17T07:01:07.187Z,44.41
2018-06-17T07:01:47.996Z,45.01
2018-06-17T07:02:28.723Z,43.55
2018-06-17T07:03:09.291Z,42.95
2018-06-17T07:03:49.922Z,41.1
2018-06-17T07:04:30.511Z,40.91
2018-06-17T07:05:11.142Z,41.2
2018-06-17T07:05:51.705Z,41.69
2018-06-17T07:06:32.309Z,41.59
2018-06-17T07:07:12.848Z,41.47
2018-06-17T07:07:53.768Z,42.93
2018-06-17T07:08:34.324Z,44.38
2018-06-17T07:09:15.021Z,44.41
2018-06-17T07:09:55.626Z,45.28
2018-06-17T07:10:36.371Z,44.6
2018-06-17T07:11:16.896Z,43.05
2018-06-17T07:11:57.627Z,42.85
2018-06-17T07:12:38.258Z,44.79
2018-06-17T07:13:18.884Z,44.79
2018-06-17T07:13:59.576Z,44.6
2018-06-17T07:14:40.248Z,45.28
2018-06-17T07:15:20.820Z,43.16
2018-06-17T07:16:01.438Z,42.08
2018-06-17T07:16:42.065Z,42.66
2018-06-17T07:17:22.608Z,44.62
2018-06-17T07:18:03.326Z,45.6
2018-06-17T07:18:43.862Z,45.98
2018-06-17T07:19:24.434Z,45.89
2018-06-17T07:20:05.001Z,45.31
2018-06-17T07:20:45.591Z,45.4
2018-06-17T07:21:26.178Z,45.31
2018-06-17T07:22:06.748Z,45.6
2018-06-17T07:22:47.407Z,45.4
2018-06-17T07:23:28.436Z,45.91
2018-06-17T07:24:09.469Z,45.62
2018-06-17T07:24:50.081Z,43.19
2018-06-17T07:25:30.829Z,43.58
2018-06-17T07:26:11.408Z,43.29
2018-06-17T07:26:51.956Z,42.7
2018-06-17T07:27:32.542Z,44.16
2018-06-17T07:28:13.116Z,43.77
2018-06-17T07:28:53.673Z,42.31
2018-06-17T07:29:34.233Z,44.45
2018-06-17T07:30:14.784Z,44.55
2018-06-17T07:30:55.349Z,45.42
2018-06-17T07:31:35.901Z,44.74
2018-06-17T07:32:16.693Z,44.45
2018-06-17T07:32:57.243Z,43.77
2018-06-17T07:33:37.915Z,44.57
2018-06-17T07:34:18.426Z,43.79
2018-06-17T07:34:58.987Z,43.96
2018-06-17T07:35:39.586Z,43.79
2018-06-17T07:36:20.149Z,43.5
2018-06-17T07:37:00.743Z,43.79
2018-06-17T07:37:41.283Z,41.83
2018-06-17T07:38:22.600Z,41.16
2018-06-17T07:39:03.577Z,41.14
2018-06-17T07:39:44.164Z,42.6
2018-06-17T07:40:25.173Z,43.58
2018-06-17T07:41:06.209Z,44.65
2018-06-17T07:41:47.271Z,44.26
2018-06-17T07:42:28.136Z,43.5
2018-06-17T07:43:09.027Z,41.16
2018-06-17T07:43:49.958Z,39.98
2018-06-17T07:44:31.022Z,40.27
2018-06-17T07:45:12.610Z,40.15
2018-06-17T07:45:53.699Z,40.73
2018-06-17T07:46:34.618Z,42.08
2018-06-17T07:47:15.986Z,41.1
2018-06-17T07:47:57.945Z,41.01
2018-06-17T07:48:39.240Z,41.49
2018-06-17T07:49:20.764Z,41.77
2018-06-17T07:50:01.765Z,41.96
2018-06-17T07:50:42.367Z,42.64
2018-06-17T07:51:23.594Z,42.83
2018-06-17T07:52:04.285Z,44.09
2018-06-17T07:52:45.673Z,45.07
2018-06-17T07:53:26.320Z,43.71
2018-06-17T07:54:07.008Z,43.71
2018-06-17T07:54:47.762Z,45.07
2018-06-17T07:55:28.998Z,45.55
2018-06-17T07:56:09.698Z,45.45
2018-06-17T07:56:51.932Z,45.26
2018-06-17T07:57:32.752Z,44.48
2018-06-17T07:58:14.161Z,44
2018-06-17T07:58:54.807Z,43.71
2018-06-17T07:59:36.373Z,43.71
2018-06-17T08:00:16.869Z,44.58
2018-06-17T08:00:57.953Z,46.14
2018-06-17T08:01:38.853Z,46.33
2018-06-17T08:02:20.399Z,44.78
2018-06-17T08:03:01.846Z,46.81
2018-06-17T08:03:42.563Z,47.4
2018-06-17T08:04:23.575Z,48.08
2018-06-17T08:05:04.927Z,48.27
2018-06-17T08:05:45.631Z,47.91
2018-06-17T08:06:26.243Z,47.42
2018-06-17T08:07:07.076Z,47.61
2018-06-17T08:07:47.834Z,45.18
2018-06-17T08:08:28.910Z,44.51
2018-06-17T08:09:10.032Z,43.54
2018-06-17T08:09:51.313Z,44.7
2018-06-17T08:10:32.394Z,46.15
2018-06-17T08:11:13.661Z,46.55
2018-06-17T08:11:55.249Z,46.74
2018-06-17T08:12:36.098Z,47.13
2018-06-17T08:13:17.686Z,47.25
2018-06-17T08:13:58.763Z,46.77
2018-06-17T08:14:39.419Z,45.69
2018-06-17T08:15:20.085Z,46.37
2018-06-17T08:16:01.517Z,46.37
2018-06-17T08:16:42.252Z,46.57
2018-06-17T08:17:22.997Z,46.47
2018-06-17T08:18:03.626Z,42.97
2018-06-17T08:18:44.679Z,42.87
2018-06-17T08:19:25.421Z,44.24
2018-06-17T08:20:06.827Z,45.5
2018-06-17T08:20:47.279Z,46.18
2018-06-17T08:21:28.109Z,46.96
2018-06-17T08:22:08.840Z,47.54
2018-06-17T08:22:49.525Z,45.98
2018-06-17T08:23:30.459Z,46.96
2018-06-17T08:24:11.415Z,46.57
2018-06-17T08:24:52.069Z,46.78
2018-06-17T08:25:32.856Z,46.2
2018-06-17T08:26:13.647Z,45.62
2018-06-17T08:26:54.310Z,45.11
2018-06-17T08:27:35.139Z,44.53
2018-06-17T08:28:15.875Z,45.31
2018-06-17T08:28:57.735Z,43.65
2018-06-17T08:29:37.790Z,43.75
2018-06-17T08:30:18.817Z,45.5
2018-06-17T08:30:59.578Z,45.69
2018-06-17T08:31:40.660Z,45.79
2018-06-17T08:32:21.598Z,46.96
2018-06-17T08:33:02.543Z,46.86
2018-06-17T08:33:43.174Z,44.82
2018-06-17T08:34:24.361Z,44.62
2018-06-17T08:35:05.271Z,45.79
2018-06-17T08:35:46.085Z,47.05
2018-06-17T08:36:27.191Z,43.73
2018-06-17T08:37:08.239Z,43.73
2018-06-17T08:37:48.869Z,43.54
2018-06-17T08:38:29.676Z,44.09
2018-06-17T08:39:10.675Z,44.78
2018-06-17T08:39:51.391Z,46.33
2018-06-17T08:40:32.227Z,44.78
2018-06-17T08:41:12.892Z,44.78
2018-06-17T08:41:53.783Z,44.85
2018-06-17T08:42:34.541Z,44.65
2018-06-17T08:43:15.447Z,46.21
2018-06-17T08:43:56.585Z,45.92
2018-06-17T08:44:37.369Z,46.21
2018-06-17T08:45:18.346Z,46.96
2018-06-17T08:45:58.898Z,48.54
2018-06-17T08:46:39.691Z,49.71
2018-06-17T08:47:20.468Z,49.99